createdAt,value
2018-11-14T00:00:25.352Z,91.80
2018-11-14T00:02:52.894Z,91.80
2018-11-14T00:05:20.419Z,91.90
2018-11-14T00:07:47.930Z,91.90
2018-11-14T00:10:15.588Z,91.90
2018-11-14T00:12:43.876Z,91.80
2018-11-14T00:15:13.523Z,92.00
2018-11-14T00:17:42.111Z,92.10
2018-11-14T00:20:10.475Z,91.90
2018-11-14T00:22:38.102Z,92.10
2018-11-14T00:25:05.834Z,92.00
2018-11-14T00:27:33.373Z,91.90
2018-11-14T00:30:00.895Z,92.00
2018-11-14T00:32:28.548Z,92.00
2018-11-14T00:34:56.570Z,91.80
2018-11-14T00:37:23.749Z,91.90
2018-11-14T00:39:51.274Z,91.80
2018-11-14T00:42:18.801Z,92.00
2018-11-14T00:44:46.348Z,91.80
2018-11-14T00:47:13.891Z,91.80
2018-11-14T00:49:41.549Z,91.70
2018-11-14T00:52:09.192Z,91.80
2018-11-14T00:54:36.715Z,91.70
2018-11-14T00:57:04.391Z,91.80
2018-11-14T00:59:31.896Z,91.80
2018-11-14T01:01:59.497Z,91.70
2018-11-14T01:04:27.030Z,91.90
2018-11-14T01:06:54.563Z,91.80
2018-11-14T01:09:22.119Z,92.20
2018-11-14T01:11:49.679Z,91.80
2018-11-14T01:14:17.267Z,91.70
2018-11-14T01:16:44.838Z,91.80
2018-11-14T01:19:12.367Z,91.70
2018-11-14T01:21:39.893Z,91.70
2018-11-14T01:24:07.869Z,91.70
2018-11-14T01:26:35.441Z,91.70
2018-11-14T01:29:03.062Z,91.70
2018-11-14T01:31:30.749Z,91.60
2018-11-14T01:33:58.300Z,91.50
2018-11-14T01:36:25.791Z,91.50
2018-11-14T01:38:53.311Z,91.60
2018-11-14T01:41:20.913Z,91.50
2018-11-14T01:43:48.544Z,91.50
2018-11-14T01:46:16.091Z,91.40
2018-11-14T01:48:43.605Z,91.40
2018-11-14T01:51:11.159Z,91.70
2018-11-14T01:53:38.756Z,91.30
2018-11-14T01:56:06.395Z,91.30
2018-11-14T01:58:33.915Z,91.30
2018-11-14T02:01:01.445Z,91.40
2018-11-14T02:03:28.979Z,91.20
2018-11-14T02:05:56.537Z,91.40
2018-11-14T02:08:24.164Z,91.40
2018-11-14T02:10:51.752Z,91.30
2018-11-14T02:13:19.338Z,91.30
2018-11-14T02:15:46.893Z,91.40
2018-11-14T02:18:14.441Z,91.40
2018-11-14T02:20:41.996Z,91.50
2018-11-14T02:23:10.583Z,91.30
2018-11-14T02:25:38.196Z,91.30
2018-11-14T02:28:05.901Z,91.20
2018-11-14T02:30:33.404Z,91.30
2018-11-14T02:33:00.956Z,91.30
2018-11-14T02:35:28.565Z,91.20
2018-11-14T02:37:56.109Z,91.20
2018-11-14T02:40:23.742Z,91.20
2018-11-14T02:42:51.298Z,91.20
2018-11-14T02:45:18.848Z,91.20
2018-11-14T02:47:46.403Z,91.20
2018-11-14T02:50:15.306Z,91.20
2018-11-14T02:52:42.811Z,91.10
2018-11-14T02:55:12.104Z,91.20
2018-11-14T02:57:39.856Z,91.10
2018-11-14T03:00:09.028Z,91.10
2018-11-14T03:02:36.545Z,91.10
2018-11-14T03:05:04.568Z,91.20
2018-11-14T03:07:32.089Z,91.30
2018-11-14T03:09:59.961Z,91.20
2018-11-14T03:12:27.547Z,91.40
2018-11-14T03:14:55.251Z,91.20
2018-11-14T03:17:22.778Z,91.10
2018-11-14T03:19:50.281Z,91.20
2018-11-14T03:22:17.791Z,91.20
2018-11-14T03:24:45.334Z,91.20
2018-11-14T03:27:12.935Z,91.30
2018-11-14T03:29:40.600Z,91.10
2018-11-14T03:32:08.209Z,91.20
2018-11-14T03:34:36.043Z,91.30
2018-11-14T03:37:03.633Z,91.30
2018-11-14T03:39:31.201Z,91.30
2018-11-14T03:41:58.727Z,91.30
2018-11-14T03:44:26.324Z,91.30
2018-11-14T03:46:53.832Z,91.20
2018-11-14T03:49:21.716Z,91.20
2018-11-14T03:51:49.233Z,91.70
2018-11-14T03:54:16.856Z,91.30
2018-11-14T03:56:44.438Z,91.40
2018-11-14T03:59:12.111Z,91.30
2018-11-14T04:01:39.680Z,91.30
2018-11-14T04:04:07.212Z,91.30
2018-11-14T04:06:34.788Z,91.30
2018-11-14T04:09:02.799Z,91.30
2018-11-14T04:11:30.347Z,91.20
2018-11-14T04:13:57.867Z,91.30
2018-11-14T04:16:25.433Z,91.30
2018-11-14T04:18:53.012Z,91.40
2018-11-14T04:21:20.608Z,91.40
2018-11-14T04:23:49.786Z,91.40
2018-11-14T04:26:17.450Z,91.40
2018-11-14T04:28:45.388Z,91.40
2018-11-14T04:31:12.977Z,91.50
2018-11-14T04:33:40.479Z,91.40
2018-11-14T04:36:08.008Z,91.50
2018-11-14T04:38:35.563Z,91.50
2018-11-14T04:41:03.168Z,91.50
2018-11-14T04:43:30.693Z,91.40
2018-11-14T04:45:58.224Z,91.40
2018-11-14T04:48:25.763Z,91.40
2018-11-14T04:50:53.279Z,91.40
2018-11-14T04:53:20.815Z,91.40
2018-11-14T04:55:48.509Z,91.30
2018-11-14T04:58:16.093Z,91.30
2018-11-14T05:00:43.620Z,91.40
2018-11-14T05:03:11.115Z,91.40
2018-11-14T05:05:38.711Z,91.30
2018-11-14T05:08:06.316Z,91.50
2018-11-14T05:10:33.936Z,91.30
2018-11-14T05:13:01.509Z,91.30
2018-11-14T05:15:29.313Z,91.40
2018-11-14T05:17:56.866Z,91.40
2018-11-14T05:20:24.435Z,91.40
2018-11-14T05:22:52.338Z,91.40
2018-11-14T05:25:19.945Z,91.40
2018-11-14T05:27:47.475Z,91.50
2018-11-14T05:30:16.231Z,91.30
2018-11-14T05:32:44.727Z,91.40
2018-11-14T05:35:12.824Z,91.40
2018-11-14T05:37:40.434Z,91.40
2018-11-14T05:40:10.220Z,91.40
2018-11-14T05:42:38.359Z,91.50
2018-11-14T05:45:10.336Z,91.40
2018-11-14T05:47:38.360Z,91.30
2018-11-14T05:50:09.663Z,91.40
2018-11-14T05:52:37.259Z,91.40
2018-11-14T05:55:05.218Z,91.40
2018-11-14T05:57:32.716Z,91.40
2018-11-14T06:00:00.336Z,91.30
2018-11-14T06:02:27.880Z,91.70
2018-11-14T06:04:55.503Z,91.30
2018-11-14T06:07:23.161Z,91.40
2018-11-14T06:09:50.589Z,91.40
2018-11-14T06:12:18.125Z,91.40
2018-11-14T06:14:45.648Z,91.40
2018-11-14T06:17:13.304Z,91.40
2018-11-14T06:19:40.946Z,91.40
2018-11-14T06:22:08.585Z,91.50
2018-11-14T06:24:36.087Z,91.80
2018-11-14T06:27:03.592Z,91.40
2018-11-14T06:29:31.132Z,91.50
2018-11-14T06:31:58.728Z,91.50
2018-11-14T06:34:26.333Z,91.50
2018-11-14T06:36:53.925Z,91.60
2018-11-14T06:39:21.910Z,91.80
2018-11-14T06:41:54.904Z,91.50
2018-11-14T06:44:22.546Z,91.20
2018-11-14T06:46:50.135Z,91.60
2018-11-14T06:49:17.664Z,91.60
2018-11-14T06:51:45.187Z,91.50
2018-11-14T06:54:12.745Z,91.60
2018-11-14T06:56:40.244Z,91.50
2018-11-14T06:59:07.849Z,91.70
2018-11-14T07:01:35.423Z,91.70
2018-11-14T07:04:03.005Z,91.60
2018-11-14T07:06:30.530Z,91.50
2018-11-14T07:08:58.088Z,91.50
2018-11-14T07:11:25.600Z,91.60
2018-11-14T07:13:53.100Z,91.70
2018-11-14T07:16:20.706Z,91.60
2018-11-14T07:18:48.242Z,91.50
2018-11-14T07:21:15.757Z,91.60
2018-11-14T07:23:43.281Z,91.60
2018-11-14T07:26:10.844Z,91.80
2018-11-14T07:28:38.386Z,91.60
2018-11-14T07:31:05.980Z,91.60
2018-11-14T07:33:33.512Z,91.60
2018-11-14T07:36:01.034Z,91.80
2018-11-14T07:38:34.715Z,91.60
2018-11-14T07:41:03.153Z,91.60
2018-11-14T07:43:31.191Z,91.50
2018-11-14T07:45:58.737Z,91.50
2018-11-14T07:48:26.389Z,91.50
2018-11-14T07:50:53.987Z,91.50
2018-11-14T07:53:21.581Z,91.70
2018-11-14T07:55:49.071Z,91.70
2018-11-14T07:58:16.626Z,91.70
2018-11-14T08:00:44.212Z,91.70
2018-11-14T08:03:12.102Z,91.60
2018-11-14T08:05:39.610Z,91.60
2018-11-14T08:08:07.190Z,91.70
2018-11-14T08:10:34.717Z,91.70
2018-11-14T08:13:02.332Z,91.70
2018-11-14T08:15:29.899Z,91.70
2018-11-14T08:17:57.505Z,92.00
2018-11-14T08:20:25.034Z,91.90
2018-11-14T08:22:53.106Z,91.80
2018-11-14T08:25:20.648Z,91.90
2018-11-14T08:27:48.195Z,91.80
2018-11-14T08:30:15.988Z,91.80
2018-11-14T08:32:43.625Z,91.80
2018-11-14T08:35:11.134Z,91.70
2018-11-14T08:37:39.400Z,91.80
2018-11-14T08:40:08.280Z,91.80
2018-11-14T08:42:36.331Z,91.70
2018-11-14T08:45:05.132Z,91.80
2018-11-14T08:47:32.668Z,91.90
2018-11-14T08:50:00.216Z,91.80
2018-11-14T08:52:27.847Z,92.00
2018-11-14T08:54:55.500Z,92.00
2018-11-14T08:57:23.230Z,91.80
2018-11-14T08:59:50.766Z,91.80
2018-11-14T09:02:18.304Z,91.80
2018-11-14T09:04:45.828Z,91.70
2018-11-14T09:07:13.476Z,91.70
2018-11-14T09:09:41.103Z,91.70
2018-11-14T09:12:09.101Z,91.80
2018-11-14T09:14:37.071Z,91.80
2018-11-14T09:17:05.187Z,91.70
2018-11-14T09:19:32.727Z,91.70
2018-11-14T09:22:00.945Z,91.70
2018-11-14T09:24:29.330Z,91.70
2018-11-14T09:26:57.499Z,91.70
2018-11-14T09:29:25.532Z,91.70
2018-11-14T09:31:53.108Z,91.70
2018-11-14T09:34:21.183Z,91.60
2018-11-14T09:36:48.723Z,91.70
2018-11-14T09:39:16.258Z,91.50
2018-11-14T09:41:43.868Z,91.40
2018-11-14T09:44:11.467Z,91.40
2018-11-14T09:46:39.093Z,91.40
2018-11-14T09:49:06.688Z,91.30
2018-11-14T09:51:34.664Z,91.20
2018-11-14T09:54:02.350Z,91.20
2018-11-14T09:56:29.955Z,91.20
2018-11-14T09:58:57.512Z,91.20
2018-11-14T10:01:25.199Z,91.10
2018-11-14T10:03:52.746Z,91.10
2018-11-14T10:06:20.287Z,90.90
2018-11-14T10:08:47.848Z,91.10
2018-11-14T10:11:15.453Z,90.90
2018-11-14T10:13:43.176Z,90.70
2018-11-14T10:16:10.758Z,90.60
2018-11-14T10:18:38.296Z,90.70
2018-11-14T10:21:05.915Z,90.70
2018-11-14T10:23:33.468Z,90.30
2018-11-14T10:26:01.092Z,90.70
2018-11-14T10:28:28.638Z,90.40
2018-11-14T10:30:56.196Z,90.30
2018-11-14T10:33:23.746Z,90.40
2018-11-14T10:35:51.396Z,90.20
2018-11-14T10:38:19.072Z,90.40
2018-11-14T10:40:46.974Z,90.70
2018-11-14T10:43:14.490Z,90.50
2018-11-14T10:45:42.047Z,90.60
2018-11-14T10:48:09.681Z,90.30
2018-11-14T10:50:37.259Z,90.50
2018-11-14T10:53:05.034Z,90.50
2018-11-14T10:55:32.617Z,90.10
2018-11-14T10:58:00.149Z,90.50
2018-11-14T11:00:33.318Z,90.50
2018-11-14T11:03:07.036Z,90.50
2018-11-14T11:05:40.439Z,90.30
2018-11-14T11:08:13.611Z,90.50
2018-11-14T11:10:46.743Z,90.50
2018-11-14T11:13:21.182Z,90.50
2018-11-14T11:15:54.431Z,90.40
2018-11-14T11:18:25.361Z,90.50
2018-11-14T11:20:53.167Z,90.30
2018-11-14T11:23:20.832Z,90.30
2018-11-14T11:25:48.544Z,90.10
2018-11-14T11:28:16.064Z,90.10
2018-11-14T11:30:43.638Z,90.00
2018-11-14T11:33:11.339Z,90.10
2018-11-14T11:35:38.955Z,88.90
2018-11-14T11:38:06.629Z,89.80
2018-11-14T11:40:34.631Z,89.60
2018-11-14T11:43:03.434Z,89.30
2018-11-14T11:45:31.269Z,90.10
2018-11-14T11:47:58.844Z,89.80
2018-11-14T11:50:26.494Z,90.00
2018-11-14T11:52:54.251Z,90.00
2018-11-14T11:55:21.854Z,89.60
2018-11-14T11:57:49.419Z,89.50
2018-11-14T12:00:17.070Z,89.10
2018-11-14T12:02:44.509Z,89.70
2018-11-14T12:05:13.344Z,88.70
2018-11-14T12:07:41.584Z,89.70
2018-11-14T12:10:10.529Z,89.50
2018-11-14T12:12:38.129Z,89.10
2018-11-14T12:15:07.241Z,89.70
2018-11-14T12:17:34.856Z,89.30
2018-11-14T12:20:02.458Z,88.80
2018-11-14T12:22:30.049Z,89.40
2018-11-14T12:24:57.703Z,88.80
2018-11-14T12:27:25.310Z,89.50
2018-11-14T12:29:52.862Z,89.10
2018-11-14T12:32:20.346Z,89.10
2018-11-14T12:34:48.829Z,89.00
2018-11-14T12:37:16.432Z,88.60
2018-11-14T12:39:44.107Z,88.60
2018-11-14T12:42:11.624Z,88.50
2018-11-14T12:44:39.154Z,88.30
2018-11-14T12:47:06.686Z,88.30
2018-11-14T12:49:34.387Z,88.50
2018-11-14T12:52:02.021Z,86.90
2018-11-14T12:54:30.580Z,88.60
2018-11-14T12:56:58.480Z,87.40
2018-11-14T12:59:26.102Z,86.60
2018-11-14T13:01:53.640Z,87.70
2018-11-14T13:04:21.227Z,87.00
2018-11-14T13:06:48.919Z,87.40
2018-11-14T13:09:16.618Z,87.00
2018-11-14T13:11:44.157Z,86.50
2018-11-14T13:14:11.848Z,86.80
2018-11-14T13:16:39.461Z,86.40
2018-11-14T13:19:06.972Z,85.60
2018-11-14T13:21:34.515Z,85.40
2018-11-14T13:24:02.056Z,85.50
2018-11-14T13:26:29.672Z,84.90
2018-11-14T13:28:57.428Z,84.60
2018-11-14T13:31:24.895Z,85.10
2018-11-14T13:33:52.459Z,84.80
2018-11-14T13:36:20.000Z,84.70
2018-11-14T13:38:47.609Z,86.20
2018-11-14T13:41:15.283Z,85.10
2018-11-14T13:43:42.953Z,84.70
2018-11-14T13:46:10.491Z,85.40
2018-11-14T13:48:38.100Z,85.50
2018-11-14T13:51:06.607Z,83.90
2018-11-14T13:53:33.966Z,84.20
2018-11-14T13:56:01.585Z,83.40
2018-11-14T13:58:29.144Z,82.90
2018-11-14T14:00:56.726Z,83.10
2018-11-14T14:03:24.348Z,84.00
2018-11-14T14:05:51.909Z,83.20
2018-11-14T14:08:19.454Z,83.90
2018-11-14T14:10:46.969Z,84.20
2018-11-14T14:13:14.504Z,84.60
2018-11-14T14:15:42.166Z,83.80
2018-11-14T14:18:09.743Z,83.80
2018-11-14T14:20:37.322Z,84.80
2018-11-14T14:23:05.117Z,83.80
2018-11-14T14:25:32.769Z,83.80
2018-11-14T14:28:00.733Z,83.40
2018-11-14T14:30:28.453Z,84.70
2018-11-14T14:32:56.052Z,83.20
2018-11-14T14:35:23.625Z,83.30
2018-11-14T14:37:51.298Z,83.80
2018-11-14T14:40:20.044Z,84.30
2018-11-14T14:42:47.624Z,85.00
2018-11-14T14:45:17.503Z,85.30
2018-11-14T14:47:45.151Z,84.80
2018-11-14T14:50:14.973Z,84.60
2018-11-14T14:52:43.040Z,84.80
2018-11-14T14:55:13.154Z,83.00
2018-11-14T14:57:41.008Z,83.50
2018-11-14T15:00:13.985Z,84.00
2018-11-14T15:02:42.090Z,84.20
2018-11-14T15:05:10.785Z,84.40
2018-11-14T15:07:38.647Z,84.10
2018-11-14T15:10:08.039Z,84.60
2018-11-14T15:12:35.609Z,85.40
2018-11-14T15:15:03.331Z,85.90
2018-11-14T15:17:30.880Z,85.60
2018-11-14T15:19:59.085Z,85.30
2018-11-14T15:22:26.704Z,86.10
2018-11-14T15:24:54.752Z,85.80
2018-11-14T15:27:22.397Z,86.00
2018-11-14T15:29:49.991Z,85.70
2018-11-14T15:32:17.642Z,85.60
2018-11-14T15:34:45.185Z,85.10
2018-11-14T15:37:12.719Z,86.00
2018-11-14T15:39:40.279Z,86.00
2018-11-14T15:42:07.919Z,86.40
2018-11-14T15:44:35.517Z,86.00
2018-11-14T15:47:03.077Z,85.90
2018-11-14T15:49:30.624Z,86.00
2018-11-14T15:51:58.206Z,86.50
2018-11-14T15:54:25.859Z,86.60
2018-11-14T15:56:53.424Z,86.40
2018-11-14T15:59:20.943Z,86.40
2018-11-14T16:01:48.460Z,86.80
2018-11-14T16:04:16.152Z,86.00
2018-11-14T16:06:43.784Z,86.40
2018-11-14T16:09:12.559Z,86.70
2018-11-14T16:11:40.237Z,86.70
2018-11-14T16:14:07.792Z,87.00
2018-11-14T16:16:35.341Z,86.40
2018-11-14T16:19:02.931Z,86.80
2018-11-14T16:21:30.499Z,86.70
2018-11-14T16:23:58.048Z,86.80
2018-11-14T16:26:25.588Z,86.80
2018-11-14T16:28:53.115Z,87.00
2018-11-14T16:31:20.656Z,87.00
2018-11-14T16:33:48.348Z,86.80
2018-11-14T16:36:15.927Z,87.80
2018-11-14T16:38:43.462Z,87.10
2018-11-14T16:41:11.169Z,86.50
2018-11-14T16:43:38.822Z,87.20
2018-11-14T16:46:06.486Z,86.80
2018-11-14T16:48:34.079Z,86.80
2018-11-14T16:51:01.736Z,87.90
2018-11-14T16:53:29.372Z,87.00
2018-11-14T16:55:57.055Z,87.20
2018-11-14T16:58:24.615Z,87.30
2018-11-14T17:00:52.219Z,87.40
2018-11-14T17:03:20.624Z,87.60
2018-11-14T17:05:48.292Z,87.30
2018-11-14T17:08:15.880Z,87.30
2018-11-14T17:10:43.407Z,87.50
2018-11-14T17:13:10.953Z,87.60
2018-11-14T17:15:38.499Z,87.60
2018-11-14T17:18:06.166Z,87.60
2018-11-14T17:20:33.707Z,87.60
2018-11-14T17:23:01.372Z,87.60
2018-11-14T17:25:28.894Z,87.50
2018-11-14T17:27:56.464Z,87.70
2018-11-14T17:30:25.428Z,87.80
2018-11-14T17:32:53.367Z,88.40
2018-11-14T17:35:22.091Z,87.80
2018-11-14T17:37:51.738Z,87.90
2018-11-14T17:40:21.973Z,88.00
2018-11-14T17:42:50.693Z,88.40
2018-11-14T17:45:20.314Z,87.70
2018-11-14T17:47:48.551Z,88.00
2018-11-14T17:50:17.988Z,88.00
2018-11-14T17:52:46.244Z,88.10
2018-11-14T17:55:14.865Z,87.90
2018-11-14T17:57:42.645Z,87.90
2018-11-14T18:00:11.751Z,88.00
2018-11-14T18:02:40.383Z,88.20
2018-11-14T18:05:10.015Z,88.10
2018-11-14T18:07:37.645Z,88.10
2018-11-14T18:10:06.507Z,88.10
2018-11-14T18:12:34.117Z,88.20
2018-11-14T18:15:01.782Z,88.40
2018-11-14T18:17:29.339Z,88.40
2018-11-14T18:19:56.856Z,88.30
2018-11-14T18:22:24.451Z,88.40
2018-11-14T18:24:51.987Z,88.40
2018-11-14T18:27:19.687Z,88.60
2018-11-14T18:29:47.261Z,88.60
2018-11-14T18:32:14.820Z,88.70
2018-11-14T18:34:42.477Z,88.70
2018-11-14T18:37:10.124Z,88.90
2018-11-14T18:39:37.802Z,88.90
2018-11-14T18:42:05.260Z,88.70
2018-11-14T18:44:32.872Z,88.70
2018-11-14T18:47:00.419Z,88.80
2018-11-14T18:49:28.079Z,88.90
2018-11-14T18:51:55.723Z,89.70
2018-11-14T18:54:23.467Z,89.10
2018-11-14T18:56:51.078Z,88.90
2018-11-14T18:59:18.623Z,88.90
2018-11-14T19:01:46.183Z,88.90
2018-11-14T19:04:13.828Z,88.70
2018-11-14T19:06:41.381Z,88.90
2018-11-14T19:09:08.927Z,88.90
2018-11-14T19:11:36.997Z,88.90
2018-11-14T19:14:04.649Z,89.10
2018-11-14T19:16:32.229Z,89.00
2018-11-14T19:18:59.798Z,89.20
2018-11-14T19:21:27.323Z,89.20
2018-11-14T19:23:54.893Z,89.10
2018-11-14T19:26:22.498Z,89.10
2018-11-14T19:28:50.202Z,89.10
2018-11-14T19:31:17.810Z,89.10
2018-11-14T19:33:45.346Z,89.00
2018-11-14T19:36:12.880Z,89.10
2018-11-14T19:38:40.577Z,89.00
2018-11-14T19:41:08.306Z,89.00
2018-11-14T19:43:35.866Z,89.00
2018-11-14T19:46:03.435Z,89.10
2018-11-14T19:48:30.959Z,89.00
2018-11-14T19:50:58.663Z,89.10
2018-11-14T19:53:26.314Z,89.10
2018-11-14T19:55:53.894Z,89.00
2018-11-14T19:58:21.434Z,89.00
2018-11-14T20:00:49.007Z,89.00
2018-11-14T20:03:16.744Z,89.00
2018-11-14T20:05:44.309Z,89.00
2018-11-14T20:08:11.983Z,89.10
2018-11-14T20:10:39.589Z,89.00
2018-11-14T20:13:07.135Z,89.10
2018-11-14T20:15:35.745Z,89.00
2018-11-14T20:18:03.474Z,89.30
2018-11-14T20:20:32.441Z,89.10
2018-11-14T20:23:00.092Z,89.00
2018-11-14T20:25:27.746Z,89.00
2018-11-14T20:27:55.310Z,89.20
2018-11-14T20:30:25.030Z,89.10
2018-11-14T20:32:53.758Z,89.10
2018-11-14T20:35:22.106Z,89.00
2018-11-14T20:37:49.795Z,89.10
2018-11-14T20:40:18.669Z,89.10
2018-11-14T20:42:46.999Z,89.10
2018-11-14T20:45:18.218Z,89.30
2018-11-14T20:47:45.855Z,88.90
2018-11-14T20:50:15.652Z,89.20
2018-11-14T20:52:43.972Z,89.30
2018-11-14T20:55:11.891Z,89.30
2018-11-14T20:57:40.327Z,89.20
2018-11-14T21:00:11.831Z,89.30
2018-11-14T21:02:40.039Z,89.20
2018-11-14T21:05:09.118Z,89.20
2018-11-14T21:07:36.622Z,89.30
2018-11-14T21:10:04.668Z,89.00
2018-11-14T21:12:32.240Z,89.10
2018-11-14T21:14:59.788Z,89.10
2018-11-14T21:17:27.393Z,89.20
2018-11-14T21:19:54.928Z,89.20
2018-11-14T21:22:22.443Z,89.10
2018-11-14T21:24:50.062Z,89.20
2018-11-14T21:27:17.738Z,89.20
2018-11-14T21:29:45.366Z,89.30
2018-11-14T21:32:12.868Z,89.20
2018-11-14T21:34:40.407Z,89.30
2018-11-14T21:37:07.980Z,89.30
2018-11-14T21:39:35.535Z,89.10
2018-11-14T21:42:03.140Z,89.10
2018-11-14T21:44:30.959Z,89.10
2018-11-14T21:46:58.463Z,89.40
2018-11-14T21:49:29.156Z,89.40
2018-11-14T21:51:57.808Z,89.30
2018-11-14T21:54:25.772Z,89.50
2018-11-14T21:56:53.512Z,89.20
2018-11-14T21:59:21.199Z,89.00
2018-11-14T22:01:48.730Z,89.10
2018-11-14T22:04:16.316Z,89.30
2018-11-14T22:06:44.097Z,89.30
2018-11-14T22:09:12.623Z,89.30
2018-11-14T22:11:40.179Z,89.20
2018-11-14T22:14:07.824Z,89.10
2018-11-14T22:16:35.442Z,89.20
2018-11-14T22:19:03.795Z,89.30
2018-11-14T22:21:32.027Z,89.50
2018-11-14T22:23:59.563Z,89.50
2018-11-14T22:26:27.103Z,89.30
2018-11-14T22:28:54.763Z,89.30
2018-11-14T22:31:22.419Z,89.30
2018-11-14T22:33:49.948Z,89.50
2018-11-14T22:36:17.456Z,89.40
2018-11-14T22:38:45.041Z,89.50
2018-11-14T22:41:12.660Z,89.60
2018-11-14T22:43:40.164Z,89.60
2018-11-14T22:46:07.711Z,89.50
2018-11-14T22:48:35.252Z,89.60
2018-11-14T22:51:02.833Z,89.60
2018-11-14T22:53:30.507Z,89.40
2018-11-14T22:55:58.049Z,89.70
2018-11-14T22:58:25.670Z,89.50
2018-11-14T23:00:53.313Z,89.60
2018-11-14T23:03:20.869Z,89.30
2018-11-14T23:05:48.372Z,89.30
2018-11-14T23:08:15.952Z,89.60
2018-11-14T23:10:43.565Z,89.70
2018-11-14T23:13:11.148Z,89.70
2018-11-14T23:15:38.670Z,90.00
2018-11-14T23:18:06.188Z,90.00
2018-11-14T23:20:33.824Z,89.60
2018-11-14T23:23:01.443Z,89.90
2018-11-14T23:25:28.996Z,89.90
2018-11-14T23:27:56.541Z,89.70
2018-11-14T23:30:25.320Z,90.00
2018-11-14T23:32:53.678Z,90.00
2018-11-14T23:35:23.444Z,90.00
2018-11-14T23:37:54.137Z,89.10
2018-11-14T23:40:21.731Z,89.70
2018-11-14T23:42:49.975Z,89.90
2018-11-14T23:45:18.491Z,90.00
2018-11-14T23:47:46.662Z,90.10
2018-11-14T23:50:17.688Z,90.00
2018-11-14T23:52:46.270Z,90.00
2018-11-14T23:55:14.544Z,89.80
2018-11-14T23:57:42.071Z,90.00
